KRNM

Ramona Airport

Ramona, California, USA
METAR KRNM 151853Z VRB06KT 10SM FEW023 FEW030 BKN037 13/06 A3013 RMK AO2 SLP197 T01330061
Observed Flight Rules
Feb-15 @ 18:53 UTC (13 minutes ago) Visual Flight Rules
Wind Visibility Clouds
Variable at 6 knots 10 miles
  • Few at 2,300' AGL
  • Few at 3,000' AGL
  • Broken at 3,700' AGL
Temperatures Readings
Current 13°C / 55°F
Dewpoint 6°C / 43°F
Humidity 63%
Altimeter 30.13" Hg
Pressure 1019.7 hPa
Elevation 427
METAR KRNM 151853Z VRB06KT 10SM FEW023 FEW030 BKN037 13/06 A3013 RMK AO2 SLP197 T01330061
Observed Flight Rules
Feb-15 @ 18:53 UTC
(13 minutes ago)
VFR
Wind Visibility
Variable at 6 knots 10 miles
Clouds
  • Few at 2,300' AGL
  • Few at 3,000' AGL
  • Broken at 3,700' AGL
Temperature Dewpoint
13°C / 55°F 6°C / 43°F
Humidity Altimeter Pressure
63% 30.13" Hg 1019.7 hPa